Time;durP1;ratioP1;P1;durP2;ratioP2;P2;SDS_P1;SDS_P2;PMS_P1;PMS_P2;Temp;Humidity;BMP_temperature;BMP_pressure;BME280_temperature;BME280_humidity;BME280_pressure;Samples;Min_cycle;Max_cycle;Signal;HPM_P1;HPM_P2
2023/08/16 00:00:45;;;;;;;6.78;6.18;;;19.60;99.90;;;;;;5033544;28;20061;-82
2023/08/16 00:03:11;;;;;;;7.35;6.65;;;19.40;99.90;;;;;;5034498;28;20044;-82
2023/08/16 00:05:37;;;;;;;8.80;6.43;;;19.30;99.90;;;;;;5033904;28;20041;-82
2023/08/16 00:08:02;;;;;;;7.15;6.47;;;19.30;99.90;;;;;;5033592;28;20109;-82
2023/08/16 00:10:28;;;;;;;6.63;5.97;;;19.30;99.90;;;;;;5034292;28;20028;-82
2023/08/16 00:12:53;;;;;;;7.10;6.40;;;19.70;99.90;;;;;;5034277;28;20026;-82
2023/08/16 00:15:19;;;;;;;7.38;6.68;;;19.40;99.90;;;;;;5033667;28;20056;-82
2023/08/16 00:17:45;;;;;;;7.03;6.40;;;19.20;99.90;;;;;;5033880;28;20029;-82
2023/08/16 00:20:11;;;;;;;6.78;6.18;;;19.20;99.90;;;;;;5034073;28;20440;-82
2023/08/16 00:22:37;;;;;;;7.97;7.18;;;19.20;99.90;;;;;;5032950;28;20481;-82
2023/08/16 00:25:02;;;;;;;7.63;6.90;;;19.20;99.90;;;;;;5033824;28;20022;-82
2023/08/16 00:27:28;;;;;;;7.95;7.25;;;19.20;99.90;;;;;;5033682;28;20041;-82
2023/08/16 00:29:54;;;;;;;8.20;7.15;;;19.20;99.90;;;;;;5033056;28;20047;-82
2023/08/16 00:32:19;;;;;;;7.47;6.43;;;19.10;99.90;;;;;;5034082;28;20396;-82
2023/08/16 00:34:45;;;;;;;7.72;7.03;;;19.10;99.90;;;;;;5033410;28;20081;-82
2023/08/16 00:37:10;;;;;;;11.98;7.78;;;19.10;99.90;;;;;;5032995;28;20033;-82
2023/08/16 00:39:38;;;;;;;9.00;7.93;;;19.10;99.90;;;;;;5033077;28;20029;-82
2023/08/16 00:42:04;;;;;;;8.73;7.40;;;19.10;99.90;;;;;;5033789;28;20033;-82
2023/08/16 00:44:30;;;;;;;8.10;7.38;;;19.10;99.90;;;;;;5032544;28;20090;-81
2023/08/16 00:46:55;;;;;;;7.68;7.07;;;19.10;99.90;;;;;;5033524;28;20042;-82
2023/08/16 00:49:21;;;;;;;11.55;8.68;;;19.00;99.90;;;;;;5034008;28;20021;-82
2023/08/16 00:51:48;;;;;;;9.10;8.20;;;19.50;99.90;;;;;;5032520;28;20021;-82
2023/08/16 00:54:14;;;;;;;9.75;8.05;;;18.80;99.90;;;;;;5033376;28;20104;-81
2023/08/16 00:56:39;;;;;;;9.82;8.32;;;18.80;99.90;;;;;;5032535;28;20179;-81
2023/08/16 00:59:05;;;;;;;9.18;8.27;;;18.80;99.90;;;;;;5033451;28;20430;-81
2023/08/16 01:01:31;;;;;;;8.25;7.55;;;19.00;99.90;;;;;;5033005;28;20037;-81
2023/08/16 01:03:57;;;;;;;7.45;6.88;;;18.80;99.90;;;;;;5032437;28;20056;-81
2023/08/16 01:06:23;;;;;;;8.98;8.07;;;18.70;99.90;;;;;;5033147;28;20426;-82
2023/08/16 01:08:50;;;;;;;9.43;7.50;;;18.90;99.90;;;;;;5032771;28;20030;-81
2023/08/16 01:11:27;;;;;;;12.43;8.07;;;18.90;99.90;;;;;;5032729;28;20029;-81
2023/08/16 01:14:14;;;;;;;8.07;7.43;;;18.90;99.90;;;;;;5033072;28;20036;-81
2023/08/16 01:16:43;;;;;;;8.30;7.43;;;18.90;99.90;;;;;;5032775;28;20033;-81
2023/08/16 01:19:18;;;;;;;8.25;7.45;;;18.90;99.90;;;;;;5032167;28;20094;-82
2023/08/16 01:21:51;;;;;;;10.43;8.52;;;18.90;99.90;;;;;;5032686;28;20112;-82
2023/08/16 01:24:33;;;;;;;9.43;8.23;;;18.90;99.90;;;;;;5032847;28;20481;-81
2023/08/16 01:27:00;;;;;;;9.60;8.52;;;18.90;99.90;;;;;;5032482;28;20091;-81
2023/08/16 01:29:26;;;;;;;7.80;7.20;;;18.90;99.90;;;;;;5032409;28;20053;-81
2023/08/16 01:31:52;;;;;;;8.73;8.00;;;19.10;99.90;;;;;;5031916;28;20045;-81
2023/08/16 01:34:18;;;;;;;9.00;8.10;;;18.90;99.90;;;;;;5032957;28;20029;-81
2023/08/16 01:36:44;;;;;;;8.93;8.15;;;18.90;99.90;;;;;;5032671;28;20079;-81
2023/08/16 01:39:10;;;;;;;8.23;7.43;;;19.50;99.90;;;;;;5031889;28;20029;-81
2023/08/16 01:41:41;;;;;;;8.45;7.72;;;18.90;99.90;;;;;;5032186;28;20102;-81
2023/08/16 01:44:08;;;;;;;8.20;7.43;;;18.90;99.90;;;;;;5032437;28;20488;-82
2023/08/16 01:46:37;;;;;;;9.43;7.53;;;19.00;99.90;;;;;;5031327;28;20543;-81
2023/08/16 01:49:04;;;;;;;8.85;7.93;;;18.90;99.90;;;;;;5032258;28;20380;-81
2023/08/16 01:51:29;;;;;;;8.48;7.63;;;18.90;99.90;;;;;;5031571;28;20116;-81
2023/08/16 01:53:55;;;;;;;9.52;8.63;;;18.90;99.90;;;;;;5031593;28;20108;-81
2023/08/16 01:56:21;;;;;;;7.32;6.82;;;18.90;99.90;;;;;;5032682;28;20032;-81
2023/08/16 01:58:47;;;;;;;8.20;7.57;;;18.90;99.90;;;;;;5031881;28;20080;-81
2023/08/16 02:01:14;;;;;;;9.38;7.00;;;18.90;99.90;;;;;;5031612;28;20029;-82
2023/08/16 02:03:40;;;;;;;9.13;8.27;;;18.90;99.90;;;;;;5031902;28;20386;-82
2023/08/16 02:06:05;;;;;;;11.57;8.35;;;18.90;99.90;;;;;;5032118;28;20033;-81
2023/08/16 02:08:31;;;;;;;9.00;8.02;;;18.90;99.90;;;;;;5031180;28;20067;-81
2023/08/16 02:10:56;;;;;;;8.32;7.53;;;18.80;99.90;;;;;;5031837;28;20071;-81
2023/08/16 02:13:22;;;;;;;9.00;8.20;;;18.90;99.90;;;;;;5031935;28;20024;-81
2023/08/16 02:15:48;;;;;;;9.52;8.30;;;18.80;99.90;;;;;;5031153;28;20118;-81
2023/08/16 02:18:13;;;;;;;9.85;7.68;;;19.10;99.90;;;;;;5031851;28;20029;-82
2023/08/16 02:20:42;;;;;;;8.98;8.18;;;19.50;99.90;;;;;;5031887;28;20069;-81
2023/08/16 02:23:08;;;;;;;8.45;7.65;;;18.70;99.90;;;;;;5031259;28;20017;-82
2023/08/16 02:25:34;;;;;;;14.63;9.23;;;18.60;99.90;;;;;;5031508;28;20652;-81
2023/08/16 02:27:59;;;;;;;8.73;7.88;;;18.60;99.90;;;;;;5031517;28;20040;-81
2023/08/16 02:30:26;;;;;;;9.27;8.00;;;18.50;99.90;;;;;;5031791;28;20561;-82
2023/08/16 02:32:54;;;;;;;10.38;8.90;;;18.40;99.90;;;;;;5031268;28;20393;-81
2023/08/16 02:35:21;;;;;;;10.02;8.45;;;18.40;99.90;;;;;;5031173;28;20040;-81
2023/08/16 02:37:46;;;;;;;9.90;8.88;;;18.30;99.90;;;;;;5031524;28;20057;-81
2023/08/16 02:40:12;;;;;;;9.02;8.13;;;18.20;99.90;;;;;;5031683;28;20060;-81
2023/08/16 02:42:38;;;;;;;9.43;7.85;;;18.20;99.90;;;;;;5030662;28;20054;-81
2023/08/16 02:45:04;;;;;;;10.25;8.90;;;18.20;99.90;;;;;;5031879;28;20033;-81
2023/08/16 02:47:30;;;;;;;10.65;9.65;;;18.20;99.90;;;;;;5031411;28;20091;-81
2023/08/16 02:49:55;;;;;;;10.00;9.20;;;18.20;99.90;;;;;;5030942;28;20030;-81
2023/08/16 02:52:21;;;;;;;9.60;8.73;;;18.20;99.90;;;;;;5031727;28;20068;-81
2023/08/16 02:54:46;;;;;;;9.13;7.95;;;18.10;99.90;;;;;;5031204;28;20535;-81
2023/08/16 02:57:13;;;;;;;10.38;8.65;;;18.20;99.90;;;;;;5030765;28;20032;-81
2023/08/16 02:59:40;;;;;;;9.27;8.38;;;18.50;99.90;;;;;;5031495;28;20136;-81
2023/08/16 03:02:07;;;;;;;9.55;8.02;;;18.20;99.90;;;;;;5031630;28;20033;-81
2023/08/16 03:04:32;;;;;;;10.07;8.68;;;18.10;99.90;;;;;;5034644;28;20108;-81
2023/08/16 03:06:58;;;;;;;8.65;7.65;;;18.10;99.90;;;;;;5035211;28;20160;-81
2023/08/16 03:09:23;;;;;;;9.15;8.30;;;18.30;99.90;;;;;;5035289;28;20033;-81
2023/08/16 03:11:49;;;;;;;9.65;8.65;;;18.10;99.90;;;;;;5034307;28;20032;-81
2023/08/16 03:14:15;;;;;;;9.48;8.57;;;18.10;99.90;;;;;;5035456;28;20468;-82
2023/08/16 03:16:41;;;;;;;8.68;7.78;;;18.60;99.90;;;;;;5034963;28;20029;-81
2023/08/16 03:19:06;;;;;;;9.18;8.23;;;18.20;99.90;;;;;;5034562;28;20466;-81
2023/08/16 03:21:36;;;;;;;8.93;8.13;;;18.80;99.90;;;;;;5034816;28;20017;-81
2023/08/16 03:24:02;;;;;;;9.27;8.50;;;18.10;99.90;;;;;;5035079;28;20117;-81
2023/08/16 03:26:28;;;;;;;9.90;8.88;;;18.10;99.90;;;;;;5034590;28;20042;-81
2023/08/16 03:28:54;;;;;;;10.63;9.65;;;18.10;99.90;;;;;;5034894;28;20083;-81
2023/08/16 03:31:19;;;;;;;9.57;8.68;;;18.10;99.90;;;;;;5034192;28;20056;-81
2023/08/16 03:33:45;;;;;;;9.45;8.57;;;18.10;99.90;;;;;;5035079;28;20024;-81
2023/08/16 03:36:10;;;;;;;9.23;8.40;;;18.00;99.90;;;;;;5034861;28;20101;-81
2023/08/16 03:38:36;;;;;;;10.32;8.15;;;18.30;99.90;;;;;;5033715;28;20053;-81
2023/08/16 03:41:01;;;;;;;8.18;7.40;;;18.10;99.90;;;;;;5035072;28;20029;-81
2023/08/16 03:43:29;;;;;;;7.65;7.07;;;18.10;99.90;;;;;;5034828;28;20037;-81
2023/08/16 03:45:54;;;;;;;9.98;7.57;;;18.10;99.90;;;;;;5034131;28;20439;-81
2023/08/16 03:48:20;;;;;;;7.50;6.90;;;18.00;99.90;;;;;;5034831;28;20030;-81
2023/08/16 03:50:45;;;;;;;6.75;6.15;;;18.00;99.90;;;;;;5034439;28;20021;-81
2023/08/16 03:53:11;;;;;;;6.20;5.70;;;18.00;99.90;;;;;;5033791;28;20033;-81
2023/08/16 03:55:37;;;;;;;6.45;5.85;;;18.10;99.90;;;;;;5034466;28;20120;-81
2023/08/16 03:58:02;;;;;;;7.35;6.30;;;18.00;99.90;;;;;;5034663;28;20025;-81
2023/08/16 04:00:28;;;;;;;7.20;6.53;;;18.00;99.90;;;;;;5033362;28;20037;-81
2023/08/16 04:02:54;;;;;;;6.80;6.25;;;18.00;99.90;;;;;;5034397;28;20032;-81
2023/08/16 04:05:21;;;;;;;8.73;8.00;;;18.00;99.90;;;;;;5034423;28;20037;-81
2023/08/16 04:07:47;;;;;;;9.20;8.40;;;17.90;99.90;;;;;;5033132;28;20044;-81
2023/08/16 04:10:12;;;;;;;9.15;8.25;;;17.90;99.90;;;;;;5034416;28;20025;-80
2023/08/16 04:12:38;;;;;;;9.77;8.80;;;17.90;99.90;;;;;;5034063;28;20100;-81
2023/08/16 04:15:04;;;;;;;10.60;8.88;;;18.00;99.90;;;;;;5032993;28;20028;-81
2023/08/16 04:17:30;;;;;;;9.98;9.07;;;17.80;99.90;;;;;;5034014;28;20128;-81
2023/08/16 04:19:56;;;;;;;10.20;9.20;;;17.70;99.90;;;;;;5033911;28;20112;-81
2023/08/16 04:22:21;;;;;;;10.27;8.30;;;17.70;99.90;;;;;;5033347;28;20021;-81
2023/08/16 04:24:47;;;;;;;11.85;8.80;;;17.70;99.90;;;;;;5033955;28;20022;-81
2023/08/16 04:27:13;;;;;;;9.65;8.80;;;17.70;99.90;;;;;;5033854;28;20098;-81
2023/08/16 04:29:40;;;;;;;10.55;8.70;;;17.60;99.90;;;;;;5032731;28;20052;-81
2023/08/16 04:32:06;;;;;;;8.45;7.75;;;17.70;99.90;;;;;;5033847;28;20033;-81
2023/08/16 04:34:31;;;;;;;9.63;8.73;;;17.70;99.90;;;;;;5032979;28;20036;-81
2023/08/16 04:36:57;;;;;;;9.70;8.77;;;17.70;99.90;;;;;;5033520;28;20032;-81
2023/08/16 04:39:22;;;;;;;9.70;8.90;;;17.70;99.90;;;;;;5033992;28;20033;-81
2023/08/16 04:41:48;;;;;;;10.18;9.15;;;17.70;99.90;;;;;;5032837;28;20600;-81
2023/08/16 04:44:14;;;;;;;9.95;9.07;;;17.70;99.90;;;;;;5033700;28;20503;-81
2023/08/16 04:46:39;;;;;;;10.15;9.32;;;17.70;99.90;;;;;;5033299;28;20044;-81
2023/08/16 04:49:05;;;;;;;13.38;10.05;;;18.00;99.90;;;;;;5032768;28;20453;-81
2023/08/16 04:51:31;;;;;;;11.60;10.27;;;17.60;99.90;;;;;;5033106;28;20036;-81
2023/08/16 04:53:56;;;;;;;11.30;9.85;;;17.50;99.90;;;;;;5033566;28;20030;-81
2023/08/16 04:56:22;;;;;;;9.80;8.90;;;18.30;99.90;;;;;;5032734;28;20061;-81
2023/08/16 04:58:47;;;;;;;11.20;10.13;;;17.50;99.90;;;;;;5033024;28;20028;-81
2023/08/16 05:01:13;;;;;;;12.25;10.98;;;17.90;99.90;;;;;;5033119;28;20093;-81
2023/08/16 05:03:39;;;;;;;12.25;10.20;;;17.50;99.90;;;;;;5032382;28;20029;-81
2023/08/16 05:06:05;;;;;;;10.45;9.52;;;17.40;99.90;;;;;;5033016;28;20033;-81
2023/08/16 05:08:31;;;;;;;12.45;9.70;;;17.30;99.90;;;;;;5032817;28;20025;-81
2023/08/16 05:10:58;;;;;;;10.30;9.30;;;17.40;99.90;;;;;;5032483;28;20036;-81
2023/08/16 05:13:24;;;;;;;10.60;9.50;;;17.30;99.90;;;;;;5033364;28;20045;-81
2023/08/16 05:15:49;;;;;;;10.10;8.23;;;17.30;99.90;;;;;;5032588;28;20053;-81
2023/08/16 05:18:15;;;;;;;9.77;8.88;;;17.30;99.90;;;;;;5032256;28;20036;-81
2023/08/16 05:20:41;;;;;;;10.45;9.15;;;17.30;99.90;;;;;;5032628;28;20027;-80
2023/08/16 05:23:07;;;;;;;9.30;7.88;;;17.30;99.90;;;;;;5032816;28;20440;-81
2023/08/16 05:25:33;;;;;;;8.80;8.00;;;17.30;99.90;;;;;;5030925;28;20034;-81
2023/08/16 05:27:58;;;;;;;12.93;9.07;;;17.40;99.90;;;;;;5032738;28;20033;-81
2023/08/16 05:30:27;;;;;;;11.50;9.20;;;17.40;99.90;;;;;;5032893;28;20060;-81
2023/08/16 05:32:55;;;;;;;10.95;8.05;;;17.50;99.90;;;;;;5031643;28;20037;-81
2023/08/16 05:35:21;;;;;;;8.52;7.75;;;17.50;99.90;;;;;;5032431;28;20420;-81
2023/08/16 05:37:48;;;;;;;9.18;8.23;;;17.50;99.90;;;;;;5031897;28;20553;-81
2023/08/16 05:40:14;;;;;;;9.07;8.18;;;17.50;99.90;;;;;;5032937;28;20377;-81
2023/08/16 05:42:40;;;;;;;8.27;7.50;;;17.50;99.90;;;;;;5032406;28;20420;-81
2023/08/16 05:45:07;;;;;;;8.82;7.95;;;17.50;99.90;;;;;;5031676;28;20470;-81
2023/08/16 05:47:32;;;;;;;7.85;7.10;;;17.50;99.90;;;;;;5031999;28;20033;-81
2023/08/16 05:49:59;;;;;;;8.65;6.80;;;17.50;99.90;;;;;;5032150;28;20378;-81
2023/08/16 05:52:25;;;;;;;6.75;6.20;;;17.60;99.90;;;;;;5031994;28;20568;-81
2023/08/16 05:54:51;;;;;;;8.23;6.75;;;17.50;99.90;;;;;;5031865;28;20049;-81
2023/08/16 05:57:17;;;;;;;6.20;5.65;;;17.50;99.90;;;;;;5032336;28;20034;-81
2023/08/16 05:59:42;;;;;;;6.55;6.05;;;17.60;99.90;;;;;;5031216;28;20025;-81
2023/08/16 06:02:08;;;;;;;7.03;6.38;;;17.60;99.90;;;;;;5032027;28;20489;-81
2023/08/16 06:04:34;;;;;;;7.50;6.00;;;17.60;99.90;;;;;;5031996;28;20021;-81
2023/08/16 06:07:01;;;;;;;6.15;5.65;;;18.00;99.90;;;;;;5031131;28;20559;-81
2023/08/16 06:09:26;;;;;;;6.45;5.90;;;17.70;99.90;;;;;;5032343;28;20381;-81
2023/08/16 06:11:52;;;;;;;6.93;6.32;;;17.70;99.90;;;;;;5031596;28;20025;-81
2023/08/16 06:14:17;;;;;;;7.22;6.43;;;17.80;99.90;;;;;;5031326;28;20021;-81
2023/08/16 06:16:45;;;;;;;8.45;6.65;;;17.80;99.90;;;;;;5031688;28;20039;-81
2023/08/16 06:19:13;;;;;;;6.55;5.82;;;17.80;99.90;;;;;;5031766;28;20488;-81
2023/08/16 06:21:39;;;;;;;6.97;6.28;;;17.80;99.90;;;;;;5031044;28;20117;-81
2023/08/16 06:24:05;;;;;;;6.78;6.13;;;17.90;99.90;;;;;;5031979;28;20097;-81
2023/08/16 06:26:30;;;;;;;7.90;6.05;;;18.00;99.90;;;;;;5031686;28;20034;-81
2023/08/16 06:28:56;;;;;;;6.38;5.75;;;17.90;99.90;;;;;;5031179;28;20087;-81
2023/08/16 06:31:22;;;;;;;10.45;6.40;;;18.10;99.90;;;;;;5031755;28;20056;-81
2023/08/16 06:33:47;;;;;;;13.25;6.85;;;18.30;99.90;;;;;;5031631;28;20461;-81
2023/08/16 06:36:13;;;;;;;6.28;5.78;;;18.10;99.90;;;;;;5031061;28;20465;-81
2023/08/16 06:38:38;;;;;;;12.65;6.60;;;18.20;99.90;;;;;;5031444;28;20029;-80
2023/08/16 06:41:04;;;;;;;8.95;6.30;;;18.10;99.90;;;;;;5031274;28;20030;-81
2023/08/16 06:43:30;;;;;;;7.03;6.32;;;18.20;99.90;;;;;;5031425;28;20031;-81
2023/08/16 06:45:56;;;;;;;6.38;5.78;;;18.30;99.90;;;;;;5031523;28;20052;-81
2023/08/16 06:48:22;;;;;;;10.25;6.50;;;18.70;99.90;;;;;;5030878;28;20053;-81
2023/08/16 06:50:48;;;;;;;9.85;6.57;;;18.40;99.90;;;;;;5031342;28;20045;-81
2023/08/16 06:53:13;;;;;;;6.55;5.82;;;18.40;99.90;;;;;;5031662;28;20087;-81
2023/08/16 06:55:39;;;;;;;8.82;6.93;;;18.50;99.90;;;;;;5030693;28;20029;-81
2023/08/16 06:58:07;;;;;;;8.35;6.38;;;18.90;99.90;;;;;;5031590;28;20021;-81
2023/08/16 07:00:34;;;;;;;10.05;6.45;;;18.60;99.90;;;;;;5031306;28;20033;-81
2023/08/16 07:03:02;;;;;;;9.98;6.57;;;18.50;99.90;;;;;;5030712;28;20079;-81
2023/08/16 07:05:28;;;;;;;8.68;6.13;;;18.50;99.90;;;;;;5031986;28;20022;-81
2023/08/16 07:07:55;;;;;;;7.20;5.53;;;18.60;99.90;;;;;;5031286;28;20408;-81
2023/08/16 07:10:21;;;;;;;10.00;5.75;;;18.60;99.90;;;;;;5031069;28;20036;-80
2023/08/16 07:12:47;;;;;;;10.95;6.35;;;18.70;99.90;;;;;;5031392;28;20022;-81
2023/08/16 07:15:12;;;;;;;11.20;5.70;;;18.70;99.90;;;;;;5031250;28;20117;-81
2023/08/16 07:17:39;;;;;;;5.50;5.03;;;18.70;99.90;;;;;;5030473;28;20037;-81
2023/08/16 07:20:07;;;;;;;5.22;4.72;;;19.00;99.90;;;;;;5031390;28;20435;-81
2023/08/16 07:22:37;;;;;;;8.32;4.95;;;18.80;99.90;;;;;;5031116;28;20469;-80
2023/08/16 07:25:06;;;;;;;6.18;4.68;;;18.80;99.90;;;;;;5030779;28;20025;-80
2023/08/16 07:27:32;;;;;;;6.25;4.20;;;18.80;99.90;;;;;;5031393;28;20039;-81
2023/08/16 07:29:58;;;;;;;8.05;4.75;;;18.80;99.90;;;;;;5030872;28;20049;-81
2023/08/16 07:32:24;;;;;;;8.38;4.40;;;18.80;99.90;;;;;;5030904;28;20108;-81
2023/08/16 07:34:50;;;;;;;4.10;3.70;;;18.80;99.90;;;;;;5031073;28;20022;-81
2023/08/16 07:37:15;;;;;;;5.40;3.78;;;19.40;99.90;;;;;;5030890;28;20381;-81
2023/08/16 07:39:41;;;;;;;5.10;3.30;;;18.80;99.90;;;;;;5030079;28;20022;-81
2023/08/16 07:42:07;;;;;;;4.35;3.10;;;18.90;99.90;;;;;;5031098;28;20029;-81
2023/08/16 07:44:34;;;;;;;5.78;2.75;;;18.90;99.90;;;;;;5030182;28;20469;-81
2023/08/16 07:47:00;;;;;;;5.07;2.95;;;19.00;99.90;;;;;;5031362;28;20133;-81
2023/08/16 07:49:26;;;;;;;5.35;2.83;;;19.00;99.90;;;;;;5033430;28;20069;-81
2023/08/16 07:51:55;;;;;;;5.90;2.75;;;19.20;99.90;;;;;;5033713;28;20022;-81
2023/08/16 07:54:20;;;;;;;4.47;3.13;;;19.00;99.90;;;;;;5034631;28;20025;-81
2023/08/16 07:56:46;;;;;;;4.22;2.90;;;19.10;99.90;;;;;;5034418;28;20030;-81
2023/08/16 07:59:11;;;;;;;5.25;2.70;;;19.20;99.90;;;;;;5033540;28;20488;-81
2023/08/16 08:01:37;;;;;;;5.93;2.97;;;19.00;99.90;;;;;;5034180;28;20329;-81
2023/08/16 08:04:03;;;;;;;5.18;2.83;;;19.20;99.90;;;;;;5034208;28;20017;-81
2023/08/16 08:06:29;;;;;;;5.25;2.95;;;19.20;99.90;;;;;;5033415;28;20038;-81
2023/08/16 08:08:54;;;;;;;3.75;2.40;;;19.20;99.90;;;;;;5034414;28;20385;-81
2023/08/16 08:11:20;;;;;;;3.55;2.25;;;19.30;99.90;;;;;;5034300;28;20075;-81
2023/08/16 08:13:46;;;;;;;2.85;1.92;;;19.30;99.90;;;;;;5033313;28;20049;-81
2023/08/16 08:16:11;;;;;;;4.90;1.85;;;19.40;99.90;;;;;;5033964;28;20466;-80
2023/08/16 08:18:37;;;;;;;3.28;1.77;;;19.40;99.90;;;;;;5033727;28;20410;-82
2023/08/16 08:21:02;;;;;;;2.10;1.73;;;19.40;99.90;;;;;;5033330;28;20105;-82
2023/08/16 08:23:28;;;;;;;3.92;1.90;;;19.50;99.90;;;;;;5034092;28;20037;-81
2023/08/16 08:25:54;;;;;;;6.43;2.28;;;19.50;99.90;;;;;;5033688;28;20021;-81
2023/08/16 08:28:20;;;;;;;3.05;2.13;;;20.30;99.90;;;;;;5033074;28;20083;-81
2023/08/16 08:30:46;;;;;;;2.60;1.80;;;19.60;99.90;;;;;;5033723;28;20045;-81
2023/08/16 08:33:11;;;;;;;5.90;2.00;;;19.40;99.90;;;;;;5033899;28;20036;-81
2023/08/16 08:35:38;;;;;;;6.07;2.13;;;20.00;99.90;;;;;;5032933;28;20030;-81
2023/08/16 08:38:04;;;;;;;2.75;2.33;;;19.70;99.90;;;;;;5033639;28;20545;-81
2023/08/16 08:40:30;;;;;;;3.33;1.45;;;19.70;99.90;;;;;;5033478;28;20108;-81
2023/08/16 08:43:01;;;;;;;2.75;1.73;;;19.90;99.90;;;;;;5032820;28;20440;-81
2023/08/16 08:45:34;;;;;;;5.35;1.52;;;19.80;99.90;;;;;;5033729;28;20057;-81
2023/08/16 08:48:00;;;;;;;;;;;19.80;99.90;;;;;;5033629;28;20103;-81
2023/08/16 08:50:29;;;;;;;4.13;1.48;;;19.90;99.90;;;;;;5033779;28;19905;-83
2023/08/16 08:52:56;;;;;;;2.38;1.48;;;19.80;99.90;;;;;;5033449;28;20382;-82
2023/08/16 08:55:25;;;;;;;2.30;1.70;;;19.90;99.90;;;;;;5032954;28;20112;-81
2023/08/16 08:57:56;;;;;;;2.42;1.50;;;20.50;99.90;;;;;;5033289;28;20083;-81
2023/08/16 09:00:23;;;;;;;2.05;1.48;;;20.40;99.90;;;;;;5033490;28;20025;-81
2023/08/16 09:02:52;;;;;;;1.88;1.45;;;20.00;99.90;;;;;;5032621;28;20150;-81
2023/08/16 09:05:21;;;;;;;4.93;1.75;;;20.00;99.90;;;;;;5033455;28;20029;-81
2023/08/16 09:07:48;;;;;;;2.88;1.70;;;20.10;99.90;;;;;;5032851;28;20041;-81
2023/08/16 09:10:15;;;;;;;1.63;0.90;;;20.10;99.90;;;;;;5032819;28;20017;-81
2023/08/16 09:12:40;;;;;;;1.70;1.20;;;20.10;99.90;;;;;;5032931;28;20120;-81
2023/08/16 09:15:07;;;;;;;5.88;1.60;;;20.10;99.90;;;;;;5033507;28;20108;-81
2023/08/16 09:17:33;;;;;;;3.75;1.48;;;20.20;99.90;;;;;;5032341;28;20026;-81
2023/08/16 09:20:08;;;;;;;4.47;1.27;;;20.20;99.90;;;;;;5033288;28;20036;-81
2023/08/16 09:22:35;;;;;;;2.47;1.10;;;20.40;99.90;;;;;;5033137;28;20026;-81
2023/08/16 09:25:02;;;;;;;8.20;2.03;;;20.50;99.90;;;;;;5032544;28;20196;-82
2023/08/16 09:27:31;;;;;;;2.38;1.00;;;20.30;99.90;;;;;;5033081;28;20037;-82
2023/08/16 09:29:56;;;;;;;2.40;1.05;;;20.30;99.90;;;;;;5031809;28;20091;-80
2023/08/16 09:32:26;;;;;;;4.30;1.17;;;20.30;99.90;;;;;;5032615;28;20034;-80
2023/08/16 09:34:53;;;;;;;3.15;0.70;;;20.40;99.90;;;;;;5032322;28;20386;-80
2023/08/16 09:37:19;;;;;;;2.75;1.10;;;20.40;99.90;;;;;;5032151;28;20034;-80
2023/08/16 09:39:58;;;;;;;2.80;1.30;;;20.40;99.90;;;;;;5032594;28;20025;-82
2023/08/16 09:42:33;;;;;;;1.98;1.10;;;20.50;99.90;;;;;;5032971;28;20028;-82
2023/08/16 09:45:00;;;;;;;1.42;1.20;;;20.50;99.90;;;;;;5031938;28;20119;-82
2023/08/16 09:47:28;;;;;;;1.42;1.30;;;20.50;99.90;;;;;;5032664;28;20370;-82
2023/08/16 09:49:54;;;;;;;16.52;1.60;;;20.50;99.90;;;;;;5032681;28;20025;-82
2023/08/16 09:52:20;;;;;;;5.22;1.83;;;20.60;99.90;;;;;;5032270;28;20125;-82
2023/08/16 09:54:54;;;;;;;3.25;1.42;;;20.60;99.90;;;;;;5032300;28;20072;-81
2023/08/16 09:57:19;;;;;;;2.30;0.95;;;20.70;99.90;;;;;;5032582;28;20319;-82
2023/08/16 09:59:46;;;;;;;2.03;1.20;;;20.70;99.90;;;;;;5031057;28;20063;-81
2023/08/16 10:02:12;;;;;;;0.90;0.90;;;20.70;99.90;;;;;;5032489;28;20033;-82
2023/08/16 10:04:41;;;;;;;2.10;1.08;;;21.30;99.90;;;;;;5032277;28;20022;-81
2023/08/16 10:07:08;;;;;;;1.58;0.95;;;20.80;99.90;;;;;;5031604;28;20044;-82
2023/08/16 10:09:34;;;;;;;2.38;1.30;;;20.80;99.90;;;;;;5032165;28;20025;-81
2023/08/16 10:12:04;;;;;;;2.95;1.55;;;20.80;99.90;;;;;;5031537;28;20496;-81
2023/08/16 10:14:31;;;;;;;1.17;0.83;;;20.80;99.90;;;;;;5031759;28;20370;-81
2023/08/16 10:17:01;;;;;;;2.42;1.23;;;20.80;99.90;;;;;;5032059;28;20072;-82
2023/08/16 10:19:31;;;;;;;1.98;1.38;;;20.80;99.90;;;;;;5031500;28;20132;-81
2023/08/16 10:21:59;;;;;;;3.95;1.75;;;20.90;99.90;;;;;;5032139;28;20029;-81
2023/08/16 10:24:28;;;;;;;3.25;1.75;;;21.10;99.90;;;;;;5032138;28;20022;-82
2023/08/16 10:26:56;;;;;;;4.00;1.50;;;20.90;99.90;;;;;;5030758;28;20033;-81
2023/08/16 10:29:23;;;;;;;2.35;1.40;;;21.20;99.90;;;;;;5032598;28;20021;-81
2023/08/16 10:31:51;;;;;;;1.95;1.05;;;21.00;99.90;;;;;;5031892;28;20366;-81
2023/08/16 10:34:20;;;;;;;1.30;1.02;;;21.10;99.90;;;;;;5031201;28;20335;-81
2023/08/16 10:36:46;;;;;;;1.88;0.75;;;21.10;99.90;;;;;;5031886;28;20032;-81
2023/08/16 10:39:22;;;;;;;3.20;0.90;;;21.60;99.90;;;;;;5031878;28;20075;-81
2023/08/16 10:41:50;;;;;;;3.90;1.17;;;21.10;99.90;;;;;;5031105;28;20389;-81
2023/08/16 10:44:25;;;;;;;4.97;1.27;;;21.20;99.90;;;;;;5031988;28;20030;-81
2023/08/16 10:46:51;;;;;;;2.80;0.90;;;21.30;99.90;;;;;;5031432;28;20040;-82
2023/08/16 10:49:18;;;;;;;2.45;1.00;;;21.20;99.90;;;;;;5031040;28;20017;-82
2023/08/16 10:51:47;;;;;;;4.10;0.80;;;21.20;99.90;;;;;;5031285;28;20026;-81
2023/08/16 10:54:15;;;;;;;3.65;0.93;;;21.30;99.90;;;;;;5031551;28;20021;-81
2023/08/16 10:56:47;;;;;;;1.48;1.10;;;21.30;99.90;;;;;;5031302;28;20033;-81
2023/08/16 10:59:14;;;;;;;4.57;1.00;;;21.40;99.90;;;;;;5031581;28;20033;-82
2023/08/16 11:01:48;;;;;;;3.55;1.20;;;21.40;99.90;;;;;;5030741;28;20040;-82
2023/08/16 11:04:14;;;;;;;3.65;1.33;;;21.50;99.90;;;;;;5031333;28;20473;-82
2023/08/16 11:06:40;;;;;;;2.40;1.20;;;21.50;99.90;;;;;;5030974;28;20037;-82
2023/08/16 11:09:07;;;;;;;1.10;0.75;;;21.50;99.90;;;;;;5030727;28;20032;-81
2023/08/16 11:11:36;;;;;;;5.35;0.95;;;21.60;99.90;;;;;;5031291;28;20040;-81
2023/08/16 11:14:01;;;;;;;1.55;1.00;;;21.60;99.90;;;;;;5031855;28;20025;-81
2023/08/16 11:16:28;;;;;;;1.77;1.27;;;21.60;99.90;;;;;;5031060;28;20022;-81
2023/08/16 11:18:59;;;;;;;2.33;1.00;;;21.70;99.90;;;;;;5031485;28;20377;-82
2023/08/16 11:21:25;;;;;;;3.65;1.85;;;21.70;99.90;;;;;;5031525;28;20032;-82
2023/08/16 11:23:53;;;;;;;2.83;0.80;;;21.90;99.90;;;;;;5031760;28;20026;-82
2023/08/16 11:26:19;;;;;;;3.53;0.98;;;21.80;99.90;;;;;;5035016;28;20041;-82
2023/08/16 11:28:45;;;;;;;3.38;1.08;;;21.90;99.90;;;;;;5035054;28;20025;-82
2023/08/16 11:31:11;;;;;;;1.20;0.80;;;21.80;99.90;;;;;;5034190;28;20124;-82
2023/08/16 11:33:40;;;;;;;2.03;0.98;;;21.80;99.90;;;;;;5034672;28;20032;-81
2023/08/16 11:36:11;;;;;;;3.05;1.08;;;21.90;99.90;;;;;;5035126;28;20083;-81
2023/08/16 11:38:39;;;;;;;2.45;1.05;;;21.90;99.90;;;;;;5034073;28;20116;-81
2023/08/16 11:41:05;;;;;;;3.20;1.10;;;22.00;99.90;;;;;;5035046;28;20029;-81
2023/08/16 11:43:33;;;;;;;2.05;1.35;;;22.00;99.90;;;;;;5034234;28;20030;-82
2023/08/16 11:46:01;;;;;;;1.55;0.90;;;22.00;99.90;;;;;;5034921;28;20056;-82
2023/08/16 11:48:29;;;;;;;2.50;1.00;;;22.10;99.90;;;;;;5034890;28;20033;-82
2023/08/16 11:50:56;;;;;;;2.15;1.00;;;22.30;99.90;;;;;;5033914;28;20484;-82
2023/08/16 11:53:29;;;;;;;1.95;1.33;;;22.30;99.90;;;;;;5035069;28;20035;-82
2023/08/16 11:56:07;;;;;;;1.48;0.90;;;22.30;99.90;;;;;;5034724;28;20113;-82
2023/08/16 11:59:02;;;;;;;3.53;1.50;;;22.30;99.90;;;;;;5034148;28;20032;-82
2023/08/16 12:01:28;;;;;;;1.75;0.90;;;22.40;99.90;;;;;;5017839;28;20121;-81
2023/08/16 12:03:57;;;;;;;2.58;1.00;;;22.40;99.90;;;;;;5034890;28;20104;-81
2023/08/16 12:06:22;;;;;;;3.53;1.42;;;22.50;99.90;;;;;;5033853;28;20025;-81
2023/08/16 12:08:53;;;;;;;4.10;1.10;;;22.50;99.90;;;;;;5034208;28;20083;-82
2023/08/16 12:11:35;;;;;;;3.63;0.90;;;22.50;99.90;;;;;;5034464;28;20077;-82
2023/08/16 12:14:03;;;;;;;1.00;0.90;;;22.50;99.90;;;;;;5033629;28;20030;-82
2023/08/16 12:16:31;;;;;;;8.02;1.20;;;22.50;99.90;;;;;;5034176;28;20384;-81
2023/08/16 12:18:58;;;;;;;2.13;0.93;;;22.50;99.90;;;;;;5033846;28;20427;-82
2023/08/16 12:21:24;;;;;;;2.85;1.27;;;22.50;99.90;;;;;;5034109;28;20021;-82
2023/08/16 12:23:49;;;;;;;1.42;1.10;;;22.60;99.90;;;;;;5033469;28;20106;-82
2023/08/16 12:26:15;;;;;;;3.50;0.90;;;22.60;99.90;;;;;;5033607;28;20036;-82
2023/08/16 12:28:41;;;;;;;1.70;1.23;;;22.70;99.90;;;;;;5033616;28;20030;-81
2023/08/16 12:31:07;;;;;;;2.20;1.00;;;22.70;99.90;;;;;;5033985;28;20060;-81
2023/08/16 12:33:33;;;;;;;3.00;1.17;;;22.70;99.90;;;;;;5033061;28;20536;-81
2023/08/16 12:35:58;;;;;;;2.42;0.82;;;22.70;99.90;;;;;;5033378;28;20088;-81
2023/08/16 12:38:24;;;;;;;2.60;0.82;;;22.80;99.90;;;;;;5033985;28;20024;-81
2023/08/16 12:40:50;;;;;;;2.00;1.17;;;22.80;99.90;;;;;;5032985;28;20037;-81
2023/08/16 12:43:16;;;;;;;0.95;0.65;;;22.80;99.90;;;;;;5033920;28;20018;-81